createdAt,value
2022-10-15T00:01:55.422Z,12.20
2022-10-15T00:04:22.273Z,10.10
2022-10-15T00:06:55.504Z,10.13
2022-10-15T00:09:22.327Z,8.55
2022-10-15T00:11:49.112Z,7.78
2022-10-15T00:14:22.516Z,8.20
2022-10-15T00:16:55.545Z,9.93
2022-10-15T00:19:28.536Z,13.88
2022-10-15T00:24:40.539Z,17.77
2022-10-15T00:27:13.546Z,15.90
2022-10-15T00:29:40.398Z,17.30
2022-10-15T00:32:13.603Z,19.50
2022-10-15T00:34:47.563Z,17.80
2022-10-15T00:37:27.586Z,16.75
2022-10-15T00:40:00.595Z,17.55
2022-10-15T00:42:33.578Z,13.73
2022-10-15T00:45:07.560Z,15.63
2022-10-15T00:47:42.698Z,15.23
2022-10-15T00:50:20.610Z,13.80
2022-10-15T00:53:02.477Z,12.85
2022-10-15T00:55:39.624Z,14.32
2022-10-15T00:58:21.259Z,13.07
2022-10-15T01:00:54.741Z,15.40
2022-10-15T01:03:21.717Z,14.60
2022-10-15T01:05:57.594Z,14.88
2022-10-15T01:08:30.614Z,15.52
2022-10-15T01:11:25.174Z,18.35
2022-10-15T01:14:28.616Z,13.88
2022-10-15T01:17:16.988Z,16.80
2022-10-15T01:20:20.631Z,23.52
2022-10-15T01:23:02.312Z,21.73
2022-10-15T01:25:59.624Z,20.70
2022-10-15T01:28:47.635Z,17.35
2022-10-15T01:31:36.628Z,21.00
2022-10-15T01:34:30.766Z,19.05
2022-10-15T01:37:18.658Z,17.75
2022-10-15T01:40:02.722Z,18.63
2022-10-15T01:42:42.652Z,17.83
2022-10-15T01:45:20.644Z,17.00
2022-10-15T01:47:53.511Z,15.95
2022-10-15T01:50:31.664Z,18.33
2022-10-15T01:53:01.063Z,17.73
2022-10-15T01:55:35.698Z,17.90
2022-10-15T01:58:04.825Z,20.65
2022-10-15T02:00:31.665Z,15.93
2022-10-15T02:03:08.683Z,17.17
2022-10-15T02:05:46.694Z,18.73
2022-10-15T02:08:33.950Z,20.85
2022-10-15T02:11:19.695Z,17.45
2022-10-15T02:13:55.448Z,18.38
2022-10-15T02:16:44.697Z,17.42
2022-10-15T02:19:30.010Z,18.88
2022-10-15T02:22:14.714Z,20.17
2022-10-15T02:24:55.341Z,22.25
2022-10-15T02:27:30.750Z,17.45
2022-10-15T02:29:59.162Z,18.83
2022-10-15T02:32:27.425Z,18.52
2022-10-15T02:35:01.744Z,15.68
2022-10-15T02:37:30.817Z,19.95
2022-10-15T02:39:57.645Z,16.48
2022-10-15T02:42:31.843Z,16.25
2022-10-15T02:44:58.604Z,15.48
2022-10-15T02:47:31.821Z,16.17
2022-10-15T02:50:04.800Z,16.20
2022-10-15T02:52:31.587Z,15.88
2022-10-15T02:54:58.359Z,14.35
2022-10-15T02:57:31.744Z,13.23
2022-10-15T02:59:59.162Z,13.00
2022-10-15T03:02:32.774Z,13.35
2022-10-15T03:05:00.173Z,13.43
2022-10-15T03:07:27.093Z,16.15
2022-10-15T03:10:00.780Z,15.73
2022-10-15T03:12:27.575Z,14.35
2022-10-15T03:15:03.816Z,18.13
2022-10-15T03:17:30.616Z,11.52
2022-10-15T03:20:03.822Z,11.90
2022-10-15T03:22:30.562Z,11.13
2022-10-15T03:25:03.829Z,12.27
2022-10-15T03:27:30.602Z,10.93
2022-10-15T03:29:57.474Z,13.63
2022-10-15T03:32:33.044Z,15.25
2022-10-15T03:35:02.416Z,12.75
2022-10-15T03:37:35.855Z,12.07
2022-10-15T03:40:02.658Z,12.90
2022-10-15T03:42:29.456Z,11.82
2022-10-15T03:45:02.834Z,13.02
2022-10-15T03:47:29.623Z,11.18
2022-10-15T03:50:02.866Z,13.65
2022-10-15T03:52:29.657Z,15.52
2022-10-15T03:55:02.856Z,14.00
2022-10-15T03:57:35.863Z,13.48
2022-10-15T04:00:03.126Z,13.13
2022-10-15T04:02:37.834Z,10.18
2022-10-15T04:05:11.882Z,11.52
2022-10-15T04:07:38.651Z,14.95
2022-10-15T04:10:11.900Z,10.80
2022-10-15T04:12:44.885Z,14.30
2022-10-15T04:15:11.714Z,15.52
2022-10-15T04:17:38.436Z,13.75
2022-10-15T04:20:11.879Z,19.15
2022-10-15T04:22:38.897Z,12.95
2022-10-15T04:25:12.927Z,15.02
2022-10-15T04:27:39.843Z,13.73
2022-10-15T04:30:07.258Z,17.02
2022-10-15T04:32:40.899Z,16.15
2022-10-15T04:35:14.936Z,16.63
2022-10-15T04:37:41.796Z,16.85
2022-10-15T04:40:15.915Z,15.35
2022-10-15T04:42:42.831Z,18.27
2022-10-15T04:45:10.165Z,19.10
2022-10-15T04:47:45.063Z,18.35
2022-10-15T04:50:11.861Z,18.48
2022-10-15T04:52:44.926Z,18.73
2022-10-15T04:55:11.665Z,22.15
2022-10-15T04:57:44.935Z,21.25
2022-10-15T05:00:18.945Z,21.35
2022-10-15T05:02:54.953Z,19.45
2022-10-15T05:05:22.029Z,18.65
2022-10-15T05:07:54.941Z,25.42
2022-10-15T05:10:27.975Z,20.30
2022-10-15T05:13:01.977Z,19.63
2022-10-15T05:15:28.817Z,23.58
2022-10-15T05:18:07.978Z,21.95
2022-10-15T05:20:34.917Z,24.98
2022-10-15T05:23:01.813Z,30.35
2022-10-15T05:25:34.978Z,28.17
2022-10-15T05:28:08.017Z,24.27
2022-10-15T05:30:35.337Z,23.95
2022-10-15T05:33:08.974Z,23.10
2022-10-15T05:35:42.002Z,26.40
2022-10-15T05:38:15.024Z,20.90
2022-10-15T05:40:54.086Z,24.30
2022-10-15T05:43:21.176Z,25.10
2022-10-15T05:45:55.034Z,34.80
2022-10-15T05:48:28.131Z,33.33
2022-10-15T05:51:07.122Z,30.40
2022-10-15T05:53:34.464Z,30.73
2022-10-15T05:56:08.041Z,33.13
2022-10-15T05:58:37.410Z,33.08
2022-10-15T06:01:07.697Z,32.38
2022-10-15T06:03:41.106Z,33.47
2022-10-15T06:06:29.055Z,39.13
2022-10-15T06:08:58.223Z,45.00
2022-10-15T06:11:32.118Z,40.33
2022-10-15T06:13:58.876Z,37.13
2022-10-15T06:16:25.621Z,37.03
2022-10-15T06:19:00.223Z,43.33
2022-10-15T06:21:27.212Z,36.15
2022-10-15T06:23:53.982Z,34.05
2022-10-15T06:26:27.083Z,33.50
2022-10-15T06:28:54.000Z,35.05
2022-10-15T06:31:27.082Z,32.22
2022-10-15T06:33:53.880Z,33.35
2022-10-15T06:36:28.132Z,36.70
2022-10-15T06:39:01.596Z,33.35
2022-10-15T06:41:35.173Z,36.17
2022-10-15T06:44:08.099Z,28.42
2022-10-15T06:46:34.890Z,30.30
2022-10-15T06:49:08.110Z,31.33
2022-10-15T06:51:34.928Z,28.70
2022-10-15T06:54:08.246Z,36.35
2022-10-15T06:56:36.464Z,34.60
2022-10-15T06:59:03.223Z,35.28
2022-10-15T07:01:38.531Z,38.92
2022-10-15T07:04:15.140Z,37.22
2022-10-15T07:06:41.835Z,34.60
2022-10-15T07:09:15.158Z,30.65
2022-10-15T07:11:41.952Z,30.25
2022-10-15T07:14:15.269Z,32.22
2022-10-15T07:16:42.077Z,27.52
2022-10-15T07:19:08.842Z,29.13
2022-10-15T07:21:52.165Z,24.50
2022-10-15T07:24:18.870Z,31.17
2022-10-15T07:26:54.216Z,28.25
2022-10-15T07:29:27.148Z,27.48
2022-10-15T07:32:00.201Z,30.08
2022-10-15T07:34:27.019Z,31.75
2022-10-15T07:37:00.229Z,29.38
2022-10-15T07:39:27.043Z,26.80
2022-10-15T07:42:00.231Z,25.27
2022-10-15T07:44:26.998Z,23.23
2022-10-15T07:47:00.221Z,23.65
2022-10-15T07:49:27.137Z,21.00
2022-10-15T07:52:00.327Z,20.23
2022-10-15T07:54:27.116Z,19.60
2022-10-15T07:57:00.194Z,18.08
2022-10-15T07:59:27.067Z,16.88
2022-10-15T08:02:00.218Z,21.45
2022-10-15T08:04:27.062Z,22.60
2022-10-15T08:07:00.243Z,19.55
2022-10-15T08:09:33.260Z,18.35
2022-10-15T08:12:00.096Z,16.63
2022-10-15T08:14:33.289Z,18.83
2022-10-15T08:17:08.268Z,17.00
2022-10-15T08:19:35.140Z,15.88
2022-10-15T08:22:08.259Z,14.10
2022-10-15T08:24:35.028Z,18.27
2022-10-15T08:27:08.265Z,17.45
2022-10-15T08:29:35.075Z,19.67
2022-10-15T08:32:01.866Z,17.30
2022-10-15T08:34:35.291Z,16.35
2022-10-15T08:37:03.310Z,15.95
2022-10-15T08:39:36.278Z,16.38
2022-10-15T08:42:13.274Z,14.85
2022-10-15T08:45:05.343Z,15.32
2022-10-15T08:47:43.277Z,14.20
2022-10-15T08:50:26.525Z,12.93
2022-10-15T08:53:02.341Z,14.70
2022-10-15T08:55:42.334Z,11.05
2022-10-15T08:58:34.719Z,12.60
2022-10-15T09:01:18.545Z,12.95
2022-10-15T09:04:03.324Z,15.13
2022-10-15T09:06:34.717Z,14.48
2022-10-15T09:09:29.401Z,14.43
2022-10-15T09:11:56.157Z,14.68
2022-10-15T09:14:35.375Z,12.18
2022-10-15T09:17:14.289Z,13.15
2022-10-15T09:19:51.316Z,11.77
2022-10-15T09:22:28.340Z,12.18
2022-10-15T09:25:02.353Z,10.82
2022-10-15T09:27:38.075Z,10.48
2022-10-15T09:30:20.392Z,10.10
2022-10-15T09:32:56.786Z,9.50
2022-10-15T09:35:42.368Z,8.18
2022-10-15T09:38:36.390Z,8.48
2022-10-15T09:41:16.716Z,8.82
2022-10-15T09:43:49.663Z,7.35
2022-10-15T09:46:23.355Z,7.55
2022-10-15T09:49:06.563Z,7.45
2022-10-15T09:51:46.413Z,7.65
2022-10-15T09:54:31.783Z,7.75
2022-10-15T09:57:05.452Z,6.63
2022-10-15T10:02:22.830Z,5.88
2022-10-15T10:04:49.895Z,4.75
2022-10-15T10:07:44.499Z,6.18
2022-10-15T10:10:27.213Z,5.88
2022-10-15T10:13:02.433Z,6.20
2022-10-15T10:15:52.755Z,5.97
2022-10-15T10:18:25.610Z,6.95
2022-10-15T10:21:08.497Z,8.57
2022-10-15T10:23:38.215Z,7.18
2022-10-15T10:26:17.437Z,7.28
2022-10-15T10:29:05.228Z,8.45
2022-10-15T10:31:51.466Z,10.07
2022-10-15T10:34:31.172Z,10.02
2022-10-15T10:37:04.510Z,10.45
2022-10-15T10:39:33.852Z,9.52
2022-10-15T10:42:08.473Z,8.25
2022-10-15T10:44:41.380Z,8.27
2022-10-15T10:47:22.910Z,7.30
2022-10-15T10:49:52.260Z,7.75
2022-10-15T10:52:26.459Z,8.55
2022-10-15T10:55:20.380Z,7.00
2022-10-15T10:57:56.452Z,8.25
2022-10-15T11:00:37.273Z,7.05
2022-10-15T11:03:12.517Z,7.28
2022-10-15T11:05:40.830Z,7.20
2022-10-15T11:08:57.546Z,6.25
2022-10-15T11:11:59.310Z,6.68
2022-10-15T11:14:35.523Z,6.18
2022-10-15T11:17:22.892Z,6.10
2022-10-15T11:20:48.309Z,6.43
2022-10-15T11:23:34.557Z,4.90
2022-10-15T11:26:26.623Z,5.97
2022-10-15T11:29:36.549Z,6.75
2022-10-15T11:33:05.600Z,5.47
2022-10-15T11:35:53.300Z,6.55
2022-10-15T11:38:29.670Z,7.53
2022-10-15T11:41:36.147Z,6.28
2022-10-15T11:44:12.563Z,5.90
2022-10-15T11:46:48.609Z,5.68
2022-10-15T11:49:46.582Z,6.85
2022-10-15T11:52:27.242Z,6.57
2022-10-15T11:55:18.615Z,6.80
2022-10-15T11:57:54.570Z,6.20
2022-10-15T12:00:35.976Z,5.15
2022-10-15T12:03:27.599Z,6.32
2022-10-15T12:06:15.618Z,7.27
2022-10-15T12:08:44.430Z,6.18
2022-10-15T12:11:41.649Z,6.95
2022-10-15T12:14:54.974Z,6.78
2022-10-15T12:18:07.193Z,6.70
2022-10-15T12:20:34.049Z,6.60
2022-10-15T12:23:09.590Z,6.53
2022-10-15T12:25:42.623Z,6.10
2022-10-15T12:28:20.710Z,8.90
2022-10-15T12:30:56.913Z,8.10
2022-10-15T12:33:34.661Z,8.20
2022-10-15T12:36:09.894Z,9.10
2022-10-15T12:38:49.658Z,8.63
2022-10-15T12:41:16.494Z,7.88
2022-10-15T12:43:53.738Z,7.72
2022-10-15T12:46:20.797Z,9.77
2022-10-15T12:48:54.616Z,9.75
2022-10-15T12:51:30.659Z,11.45
2022-10-15T12:54:00.323Z,11.77
2022-10-15T12:56:46.653Z,11.57
2022-10-15T12:59:31.311Z,10.50
2022-10-15T13:02:06.677Z,9.98
2022-10-15T13:04:45.675Z,9.48
2022-10-15T13:07:14.902Z,10.45
2022-10-15T13:09:51.683Z,10.55
2022-10-15T13:12:32.721Z,10.75
2022-10-15T13:15:12.716Z,10.60
2022-10-15T13:17:39.757Z,10.82
2022-10-15T13:20:34.719Z,10.23
2022-10-15T13:23:38.760Z,10.63
2022-10-15T13:26:20.010Z,8.52
2022-10-15T13:28:55.722Z,9.93
2022-10-15T13:31:36.018Z,8.98
2022-10-15T13:34:14.721Z,8.07
2022-10-15T13:36:41.584Z,8.35
2022-10-15T13:42:14.580Z,7.50
2022-10-15T13:45:14.741Z,7.13
2022-10-15T13:50:29.238Z,6.13
2022-10-15T13:53:28.835Z,6.35
2022-10-15T13:56:04.857Z,5.85
2022-10-15T13:58:40.756Z,4.97
2022-10-15T14:01:07.593Z,5.43
2022-10-15T14:03:36.476Z,4.50
2022-10-15T14:06:36.824Z,4.65
2022-10-15T14:09:25.044Z,5.10
2022-10-15T14:12:02.305Z,5.22
2022-10-15T14:14:33.285Z,4.55
2022-10-15T14:17:09.780Z,3.88
2022-10-15T14:19:47.221Z,3.70
2022-10-15T14:22:18.282Z,3.88
2022-10-15T14:24:53.836Z,3.38
2022-10-15T14:27:24.005Z,3.30
2022-10-15T14:29:53.751Z,3.40
2022-10-15T14:32:31.824Z,3.13
2022-10-15T14:35:06.227Z,2.58
2022-10-15T14:37:43.897Z,2.75
2022-10-15T14:40:17.905Z,2.13
2022-10-15T14:43:07.883Z,1.48
2022-10-15T14:45:40.854Z,1.30
2022-10-15T14:48:24.874Z,0.90
2022-10-15T14:50:58.814Z,0.88
2022-10-15T14:53:29.177Z,0.80
2022-10-15T14:56:10.873Z,0.70
2022-10-15T14:58:45.895Z,1.95
2022-10-15T15:01:16.448Z,1.70
2022-10-15T15:03:57.958Z,0.90
2022-10-15T15:06:24.849Z,1.50
2022-10-15T15:08:58.030Z,2.60
2022-10-15T15:11:25.761Z,1.65
2022-10-15T15:13:54.091Z,1.20
2022-10-15T15:16:27.912Z,1.30
2022-10-15T15:18:56.323Z,0.80
2022-10-15T15:21:30.920Z,0.90
2022-10-15T15:23:58.003Z,0.95
2022-10-15T15:26:30.960Z,0.80
2022-10-15T15:29:03.982Z,1.00
2022-10-15T15:31:39.887Z,0.60
2022-10-15T15:34:13.945Z,0.55
2022-10-15T15:36:46.918Z,1.63
2022-10-15T15:39:19.951Z,1.00
2022-10-15T15:41:46.800Z,0.90
2022-10-15T15:44:19.966Z,1.00
2022-10-15T15:46:50.256Z,0.90
2022-10-15T15:49:23.965Z,0.70
2022-10-15T15:51:56.959Z,0.80
2022-10-15T15:54:29.934Z,1.00
2022-10-15T15:57:03.112Z,0.70
2022-10-15T15:59:29.967Z,0.70
2022-10-15T16:01:56.801Z,0.77
2022-10-15T16:04:29.938Z,0.95
2022-10-15T16:06:57.079Z,0.75
2022-10-15T16:09:27.020Z,0.60
2022-10-15T16:11:59.959Z,0.80
2022-10-15T16:14:32.948Z,1.40
2022-10-15T16:16:59.819Z,1.05
2022-10-15T16:19:33.046Z,0.80
2022-10-15T16:22:06.927Z,0.95
2022-10-15T16:24:47.072Z,0.90
2022-10-15T16:27:13.869Z,1.23
2022-10-15T16:29:40.769Z,0.93
2022-10-15T16:32:14.080Z,1.00
2022-10-15T16:34:40.812Z,0.70
2022-10-15T16:37:07.764Z,1.35
2022-10-15T16:39:41.104Z,0.95
2022-10-15T16:42:13.980Z,0.75
2022-10-15T16:44:41.021Z,1.20
2022-10-15T16:47:13.996Z,1.40
2022-10-15T16:49:42.410Z,1.08
2022-10-15T16:52:16.043Z,1.10
2022-10-15T16:54:49.200Z,1.08
2022-10-15T16:57:23.073Z,1.20
2022-10-15T16:59:49.884Z,1.60
2022-10-15T17:02:16.633Z,1.35
2022-10-15T17:04:50.063Z,1.30
2022-10-15T17:07:20.214Z,1.52
2022-10-15T17:12:26.212Z,1.08
2022-10-15T17:14:53.417Z,1.27
2022-10-15T17:17:20.255Z,1.30
2022-10-15T17:19:54.098Z,1.40
2022-10-15T17:22:21.094Z,1.40
2022-10-15T17:24:56.073Z,1.10
2022-10-15T17:27:29.114Z,1.15
2022-10-15T17:30:02.091Z,1.42
2022-10-15T17:32:28.989Z,1.25
2022-10-15T17:35:04.075Z,0.98
2022-10-15T17:37:31.266Z,1.13
2022-10-15T17:39:58.417Z,1.05
2022-10-15T17:42:32.126Z,1.23
2022-10-15T17:44:58.950Z,1.10
2022-10-15T17:47:32.165Z,1.90
2022-10-15T17:49:59.067Z,1.35
2022-10-15T17:52:32.141Z,1.20
2022-10-15T17:54:58.998Z,1.58
2022-10-15T17:57:30.192Z,1.40
2022-10-15T18:00:03.166Z,1.65
2022-10-15T18:02:36.305Z,1.73
2022-10-15T18:05:03.624Z,1.70
2022-10-15T18:07:37.122Z,1.67
2022-10-15T18:10:04.153Z,2.00
2022-10-15T18:12:37.123Z,2.33
2022-10-15T18:15:11.264Z,1.55
2022-10-15T18:17:44.232Z,1.92
2022-10-15T18:20:11.181Z,1.73
2022-10-15T18:22:44.210Z,1.95
2022-10-15T18:25:11.031Z,2.10
2022-10-15T18:27:44.122Z,1.88
2022-10-15T18:30:14.524Z,2.05
2022-10-15T18:32:48.194Z,1.50
2022-10-15T18:35:15.080Z,1.55
2022-10-15T18:37:52.192Z,1.48
2022-10-15T18:40:19.019Z,1.77
2022-10-15T18:42:52.208Z,1.33
2022-10-15T18:45:19.028Z,1.40
2022-10-15T18:47:52.191Z,1.60
2022-10-15T18:50:19.406Z,1.50
2022-10-15T18:52:53.264Z,1.58
2022-10-15T18:55:20.215Z,1.50
2022-10-15T18:57:46.953Z,1.80
2022-10-15T19:00:21.216Z,2.22
2022-10-15T19:02:48.094Z,2.20
2022-10-15T19:05:21.201Z,1.70
2022-10-15T19:07:54.242Z,1.88
2022-10-15T19:10:29.254Z,1.90
2022-10-15T19:12:56.028Z,2.10
2022-10-15T19:15:29.256Z,2.05
2022-10-15T19:17:56.925Z,2.05
2022-10-15T19:20:30.268Z,1.95
2022-10-15T19:22:57.050Z,1.90
2022-10-15T19:25:30.252Z,2.15
2022-10-15T19:28:03.415Z,2.00
2022-10-15T19:30:30.223Z,1.70
2022-10-15T19:33:03.304Z,1.70
2022-10-15T19:35:36.271Z,1.90
2022-10-15T19:38:02.981Z,1.70
2022-10-15T19:40:36.289Z,1.65
2022-10-15T19:43:09.272Z,1.73
2022-10-15T19:45:50.271Z,1.80
2022-10-15T19:48:25.322Z,2.00
2022-10-15T19:50:52.102Z,1.90
2022-10-15T19:53:19.204Z,1.77
2022-10-15T19:56:05.269Z,1.92
2022-10-15T19:58:32.867Z,1.55
2022-10-15T20:01:06.304Z,1.50
2022-10-15T20:06:14.259Z,1.20
2022-10-15T20:08:41.108Z,1.98
2022-10-15T20:11:15.297Z,1.20
2022-10-15T20:13:42.138Z,1.00
2022-10-15T20:16:19.582Z,1.42
2022-10-15T20:18:55.311Z,1.30
2022-10-15T20:21:22.146Z,1.10
2022-10-15T20:23:55.387Z,1.52
2022-10-15T20:26:30.352Z,1.58
2022-10-15T20:28:57.232Z,1.70
2022-10-15T20:31:35.383Z,1.83
2022-10-15T20:34:04.391Z,1.80
2022-10-15T20:36:31.369Z,2.20
2022-10-15T20:39:07.405Z,1.80
2022-10-15T20:41:34.488Z,1.80
2022-10-15T20:44:01.575Z,1.42
2022-10-15T20:46:46.421Z,1.48
2022-10-15T20:49:17.561Z,2.42
2022-10-15T20:51:51.369Z,1.70
2022-10-15T20:54:19.958Z,2.10
2022-10-15T20:56:46.848Z,1.52
2022-10-15T20:59:20.362Z,1.30
2022-10-15T21:01:54.453Z,1.30
2022-10-15T21:04:27.401Z,1.30
2022-10-15T21:07:00.372Z,1.25
2022-10-15T21:09:27.198Z,1.45
2022-10-15T21:12:00.435Z,1.48
2022-10-15T21:14:27.169Z,1.60
2022-10-15T21:16:53.943Z,2.00
2022-10-15T21:19:27.454Z,1.75
2022-10-15T21:22:00.391Z,1.52
2022-10-15T21:24:28.159Z,1.50
2022-10-15T21:27:01.519Z,1.35
2022-10-15T21:29:34.413Z,1.52
2022-10-15T21:32:02.191Z,1.50
2022-10-15T21:34:35.471Z,1.30
2022-10-15T21:37:02.327Z,1.80
2022-10-15T21:39:35.485Z,1.15
2022-10-15T21:42:02.257Z,1.40
2022-10-15T21:44:35.481Z,1.40
2022-10-15T21:47:02.321Z,1.55
2022-10-15T21:49:40.425Z,1.20
2022-10-15T21:52:13.420Z,1.40
2022-10-15T21:54:40.151Z,1.20
2022-10-15T21:57:14.446Z,2.00
2022-10-15T21:59:41.420Z,1.60
2022-10-15T22:02:14.577Z,1.52
2022-10-15T22:04:41.812Z,1.70
2022-10-15T22:07:15.453Z,1.25
2022-10-15T22:09:42.295Z,1.70
2022-10-15T22:12:17.723Z,1.70
2022-10-15T22:14:47.299Z,1.52
2022-10-15T22:17:22.488Z,1.58
2022-10-15T22:19:50.265Z,1.50
2022-10-15T22:22:17.328Z,1.48
2022-10-15T22:24:50.512Z,1.50
2022-10-15T22:27:17.363Z,1.30
2022-10-15T22:32:28.781Z,1.50
2022-10-15T22:34:55.637Z,1.55
2022-10-15T22:37:32.504Z,1.70
2022-10-15T22:39:59.214Z,1.30
2022-10-15T22:42:33.514Z,1.13
2022-10-15T22:45:06.546Z,1.40
2022-10-15T22:47:39.532Z,1.20
2022-10-15T22:50:06.842Z,1.42
2022-10-15T22:52:33.685Z,1.45
2022-10-15T22:55:07.551Z,1.20
2022-10-15T22:57:40.554Z,1.20
2022-10-15T23:00:08.345Z,1.10
2022-10-15T23:02:35.125Z,1.65
2022-10-15T23:05:08.536Z,1.52
2022-10-15T23:07:35.392Z,1.42
2022-10-15T23:10:08.604Z,2.00
2022-10-15T23:12:45.551Z,1.50
2022-10-15T23:15:12.389Z,1.88
2022-10-15T23:17:45.582Z,1.80
2022-10-15T23:20:12.373Z,1.60
2022-10-15T23:22:39.286Z,1.90
2022-10-15T23:25:13.585Z,1.38
2022-10-15T23:27:40.396Z,1.60
2022-10-15T23:30:14.427Z,1.58
2022-10-15T23:32:54.643Z,1.70
2022-10-15T23:35:21.440Z,1.70
2022-10-15T23:37:48.203Z,1.30
2022-10-15T23:40:21.602Z,1.50
2022-10-15T23:42:54.602Z,1.30
2022-10-15T23:45:27.645Z,1.70
2022-10-15T23:48:01.637Z,1.38
2022-10-15T23:50:41.616Z,1.60
2022-10-15T23:53:08.401Z,1.80
2022-10-15T23:55:48.664Z,1.70
2022-10-15T23:58:22.716Z,1.60
